Bamboo, North Carolina
Current Conditions -  °F | °C
As of 8:55 PM on Saturday 25 Oct 2014 (Local Time) from KTNB Reporting Station
Clear Clear  
Wind Chill: 55°   Ceiling: Unl
Heat Index: 55°   Visibility: 10mi
Dew Point: 43°   Wind: 15mph
Humidity: 63%   Direction: 300°WNW
Pressure: 30.03"   Gusts: 21mph
Location:  36.0473°N, 81.8148°W
Report Text: KTNB 260055Z AUTO 30013G18KT 10SM CLR 13/06 A3003 RMK AO2 T01300060
Loading
Personal Weather Stations






























Interactive Weather Map
Tropical Storm Tracking
New forecast layout! Learn more

10-Day Weather Forecast

Advertisements
Track Severe Weather on mobile